Time;durP1;ratioP1;P1;durP2;ratioP2;P2;SDS_P1;SDS_P2;PMS_P1;PMS_P2;Temp;Humidity;BMP_temperature;BMP_pressure;BME280_temperature;BME280_humidity;BME280_pressure;Samples;Min_cycle;Max_cycle;Signal;HPM_P1;HPM_P2
2023/02/15 00:01:11;;;;;;;;;;;;;;;10.46;100.00;100158.84;4977560;28;20308;-41
2023/02/15 00:03:37;;;;;;;;;;;;;;;10.44;100.00;100156.25;4979913;28;19922;-41
2023/02/15 00:06:02;;;;;;;;;;;;;;;10.31;100.00;100141.88;4979555;28;19928;-41
2023/02/15 00:08:27;;;;;;;;;;;;;;;10.47;100.00;100155.41;4980043;28;19917;-42
2023/02/15 00:10:53;;;;;;;;;;;;;;;10.30;100.00;100153.03;4978077;28;19918;-41
2023/02/15 00:13:18;;;;;;;;;;;;;;;10.14;100.00;100162.63;4980341;28;20298;-41
2023/02/15 00:15:43;;;;;;;;;;;;;;;10.39;100.00;100158.06;4979584;28;19944;-41
2023/02/15 00:18:08;;;;;;;;;;;;;;;10.02;100.00;100152.47;4979868;28;19921;-41
2023/02/15 00:20:34;;;;;;;;;;;;;;;9.55;100.00;100162.38;4978295;28;20065;-41
2023/02/15 00:22:59;;;;;;;;;;;;;;;9.39;100.00;100161.66;4980118;28;19924;-41
2023/02/15 00:25:24;;;;;;;;;;;;;;;9.11;100.00;100161.03;4979386;28;19922;-41
2023/02/15 00:27:50;;;;;;;;;;;;;;;9.39;100.00;100165.94;4979681;28;20478;-41
2023/02/15 00:30:15;;;;;;;;;;;;;;;9.38;100.00;100162.53;5011819;28;20048;-41
2023/02/15 00:32:40;;;;;;;;;;;;;;;9.67;100.00;100150.25;4979969;28;20013;-41
2023/02/15 00:35:06;;;;;;;;;;;;;;;9.45;100.00;100153.03;4979278;28;19973;-41
2023/02/15 00:37:32;;;;;;;;;;;;;;;9.97;100.00;100139.66;4977525;28;20272;-41
2023/02/15 00:39:57;;;;;;;;;;;;;;;9.82;100.00;100130.38;4995093;28;19977;-41
2023/02/15 00:42:22;;;;;;;;;;;;;;;9.96;100.00;100111.38;4979850;28;19922;-41
2023/02/15 00:44:47;;;;;;;;;;;;;;;10.30;100.00;100114.41;4979125;28;19917;-41
2023/02/15 00:47:12;;;;;;;;;;;;;;;9.98;100.00;100115.63;4978902;28;20001;-41
2023/02/15 00:49:38;;;;;;;;;;;;;;;9.80;100.00;100106.38;5014093;28;20060;-41
2023/02/15 00:52:03;;;;;;;;;;;;;;;9.53;100.00;100107.53;4979391;28;20016;-41
2023/02/15 00:54:28;;;;;;;;;;;;;;;9.69;100.00;100120.22;4979121;28;20016;-41
2023/02/15 00:56:53;;;;;;;;;;;;;;;9.60;100.00;100121.16;4978874;28;19932;-41
2023/02/15 00:59:19;;;;;;;;;;;;;;;9.38;100.00;100117.97;4979666;28;19960;-41
2023/02/15 01:01:44;;;;;;;;;;;;;;;9.25;100.00;100129.22;4977954;28;19973;-41
2023/02/15 01:04:09;;;;;;;;;;;;;;;9.39;100.00;100124.81;4979349;28;19969;-41
2023/02/15 01:06:34;;;;;;;;;;;;;;;9.84;100.00;100112.34;4978252;28;19965;-41
2023/02/15 01:08:59;;;;;;;;;;;;;;;9.75;100.00;100115.88;4979659;28;19945;-42
2023/02/15 01:11:25;;;;;;;;;;;;;;;9.34;100.00;100106.00;4977902;28;20053;-41
2023/02/15 01:13:50;;;;;;;;;;;;;;;9.58;100.00;100123.78;4977280;28;19953;-41
2023/02/15 01:16:16;;;;;;;;;;;;;;;9.50;100.00;100125.56;4980227;28;19976;-41
2023/02/15 01:18:41;;;;;;;;;;;;;;;8.83;100.00;100126.13;4979050;28;20372;-41
2023/02/15 01:21:13;;;;;;;;;;;;;;;9.67;100.00;100122.84;4978832;28;20047;-41
2023/02/15 01:23:38;;;;;;;;;;;;;;;9.99;100.00;100101.91;5021783;28;20424;-42
2023/02/15 01:26:04;;;;;;;;;;;;;;;9.87;100.00;100096.88;4978660;28;19933;-41
2023/02/15 01:28:29;;;;;;;;;;;;;;;9.41;100.00;100103.34;4980062;28;19918;-42
2023/02/15 01:30:54;;;;;;;;;;;;;;;9.47;100.00;100123.03;4978880;28;19928;-42
2023/02/15 01:33:19;;;;;;;;;;;;;;;9.41;100.00;100092.22;4979535;28;19922;-42
2023/02/15 01:35:45;;;;;;;;;;;;;;;9.47;100.00;100096.47;5011486;28;20028;-41
2023/02/15 01:38:11;;;;;;;;;;;;;;;10.14;100.00;100084.56;4977121;28;19922;-42
2023/02/15 01:40:36;;;;;;;;;;;;;;;8.68;100.00;100093.69;4979582;28;19996;-42
2023/02/15 01:43:01;;;;;;;;;;;;;;;8.71;100.00;100119.34;4982217;28;19929;-41
2023/02/15 01:45:28;;;;;;;;;;;;;;;8.86;100.00;100123.53;4982269;28;20024;-42
2023/02/15 01:48:01;;;;;;;;;;;;;;;9.08;100.00;100119.94;4982421;28;19922;-42
2023/02/15 01:50:26;;;;;;;;;;;;;;;9.81;100.00;100091.81;4982575;28;19925;-42
2023/02/15 01:52:52;;;;;;;;;;;;;;;10.29;100.00;100048.34;4987536;28;19933;-42
2023/02/15 01:55:17;;;;;;;;;;;;;;;9.21;100.00;100095.84;4984852;28;20593;-42
2023/02/15 01:57:43;;;;;;;;;;;;;;;8.20;100.00;100091.34;4984350;28;20005;-42
2023/02/15 02:00:08;;;;;;;;;;;;;;;9.77;100.00;100059.28;4989621;28;20642;-42
2023/02/15 02:02:33;;;;;;;;;;;;;;;10.35;100.00;100037.94;4987835;28;19957;-42
2023/02/15 02:05:02;;;;;;;;;;;;;;;10.38;100.00;100012.16;4982398;28;19921;-42
2023/02/15 02:07:28;;;;;;;;;;;;;;;11.32;100.00;100004.59;4984448;28;20405;-42
2023/02/15 02:09:53;;;;;;;;;;;;;;;10.41;100.00;100017.25;5018911;28;19945;-42
2023/02/15 02:12:18;;;;;;;;;;;;;;;9.57;100.00;100026.91;4982485;28;19922;-41
2023/02/15 02:14:43;;;;;;;;;;;;;;;9.59;100.00;100050.88;5029248;28;19925;-41
2023/02/15 02:17:09;;;;;;;;;;;;;;;9.83;100.00;100038.63;4981295;28;19936;-42
2023/02/15 02:19:46;;;;;;;;;;;;;;;9.82;100.00;100034.34;4981543;28;19968;-42
2023/02/15 02:22:31;;;;;;;;;;;;;;;10.99;100.00;100009.47;5018185;28;19970;-41
2023/02/15 02:25:02;;;;;;;;;;;;;;;11.20;100.00;99973.00;4981658;28;20127;-42
2023/02/15 02:27:43;;;;;;;;;;;;;;;10.70;100.00;99987.63;4981371;28;19925;-42
2023/02/15 02:30:20;;;;;;;;;;;;;;;10.65;100.00;100004.88;4981265;28;19922;-42
2023/02/15 02:32:48;;;;;;;;;;;;;;;11.00;100.00;100003.44;4979142;28;19922;-42
2023/02/15 02:35:23;;;;;;;;;;;;;;;10.37;100.00;100005.28;4982178;28;19921;-41
2023/02/15 02:37:51;;;;;;;;;;;;;;;10.49;100.00;100006.00;5013764;28;19922;-42
2023/02/15 02:40:19;;;;;;;;;;;;;;;10.30;100.00;99998.53;5018329;28;19929;-41
2023/02/15 02:42:47;;;;;;;;;;;;;;;9.32;100.00;100025.47;5015355;28;19925;-42
2023/02/15 02:45:14;;;;;;;;;;;;;;;9.03;100.00;100060.00;5012895;28;19957;-41
2023/02/15 02:47:46;;;;;;;;;;;;;;;8.80;100.00;100044.78;5011278;28;19926;-41
2023/02/15 02:50:16;;;;;;;;;;;;;;;9.57;100.00;100041.50;4983487;28;19926;-42
2023/02/15 02:52:45;;;;;;;;;;;;;;;8.61;100.00;100038.94;5016985;28;19972;-42
2023/02/15 02:55:11;;;;;;;;;;;;;;;9.38;100.00;100038.28;4981095;28;19921;-42
2023/02/15 02:57:36;;;;;;;;;;;;;;;8.62;100.00;100050.94;4980800;28;19928;-42
2023/02/15 03:00:02;;;;;;;;;;;;;;;9.03;100.00;100047.16;4980833;28;19936;-41
2023/02/15 03:02:29;;;;;;;;;;;;;;;9.37;100.00;100039.13;4981559;28;19917;-41
2023/02/15 03:04:58;;;;;;;;;;;;;;;9.21;100.00;100041.88;5018864;28;19925;-42
2023/02/15 03:07:23;;;;;;;;;;;;;;;8.91;100.00;100058.41;5011862;28;19918;-41
2023/02/15 03:09:50;;;;;;;;;;;;;;;8.97;100.00;100035.22;5016359;28;20502;-42
2023/02/15 03:12:23;;;;;;;;;;;;;;;8.80;100.00;100042.22;5014586;28;20037;-41
2023/02/15 03:14:50;;;;;;;;;;;;;;;8.68;100.00;100040.59;5016196;28;20374;-41
2023/02/15 03:17:15;;;;;;;;;;;;;;;8.81;100.00;100032.81;4980941;28;19968;-41
2023/02/15 03:19:40;;;;;;;;;;;;;;;9.40;100.00;100033.97;5016043;28;19926;-41
2023/02/15 03:22:09;;;;;;;;;;;;;;;8.47;100.00;100043.34;4978513;28;20008;-41
2023/02/15 03:24:34;;;;;;;;;;;;;;;8.70;100.00;100059.44;5017648;28;19925;-41
2023/02/15 03:26:59;;;;;;;;;;;;;;;8.71;100.00;100055.13;4979410;28;19921;-42
2023/02/15 03:29:25;;;;;;;;;;;;;;;8.83;100.00;100052.50;5018355;28;19926;-42
2023/02/15 03:32:00;;;;;;;;;;;;;;;8.65;100.00;100050.91;5016460;28;19971;-41
2023/02/15 03:34:25;;;;;;;;;;;;;;;9.10;100.00;100040.25;5021722;28;20346;-41
2023/02/15 03:37:05;;;;;;;;;;;;;;;9.31;100.00;100034.91;4979412;28;19933;-41
2023/02/15 03:39:42;;;;;;;;;;;;;;;9.57;100.00;100029.47;5015733;28;19937;-41
2023/02/15 03:42:08;;;;;;;;;;;;;;;9.60;100.00;100014.03;5024420;28;19928;-41
2023/02/15 03:44:35;;;;;;;;;;;;;;;9.57;100.00;100016.63;4985019;28;20313;-42
2023/02/15 03:47:00;;;;;;;;;;;;;;;9.49;100.00;100005.59;4980071;28;20624;-41
2023/02/15 03:49:26;;;;;;;;;;;;;;;10.58;100.00;99982.66;5001272;28;19921;-42
2023/02/15 03:51:51;;;;;;;;;;;;;;;10.93;100.00;99952.88;4981408;28;19922;-42
2023/02/15 04:02:38;;;;;;;;;;;;;;;10.37;100.00;99964.09;4979507;28;19976;-42
2023/02/15 04:05:03;;;;;;;;;;;;;;;10.19;100.00;99964.34;4978810;28;19922;-41
2023/02/15 04:07:29;;;;;;;;;;;;;;;10.36;100.00;99951.28;4979812;28;20016;-42
2023/02/15 04:12:37;;;;;;;;;;;;;;;8.52;100.00;100010.78;4978985;28;19946;-41
2023/02/15 04:17:47;;;;;;;;;;;;;;;9.64;100.00;100009.69;4980620;28;19929;-42
2023/02/15 04:25:40;;;;;;;;;;;;;;;9.66;100.00;99968.53;4978792;28;19928;-41
2023/02/15 04:28:07;;;;;;;;;;;;;;;9.05;100.00;99996.59;4996557;28;19921;-42
2023/02/15 04:30:32;;;;;;;;;;;;;;;9.81;100.00;99966.59;4979015;28;20161;-41
2023/02/15 04:32:57;;;;;;;;;;;;;;;9.72;100.00;99963.31;4979115;28;20535;-42
2023/02/15 04:35:22;;;;;;;;;;;;;;;9.62;100.00;99960.88;5005374;28;20620;-42
2023/02/15 04:37:48;;;;;;;;;;;;;;;8.35;100.00;99992.91;4982487;28;20446;-42
2023/02/15 04:40:14;;;;;;;;;;;;;;;8.81;100.00;100002.00;4979369;28;20013;-41
2023/02/15 04:42:39;;;;;;;;;;;;;;;9.12;100.00;99992.25;4980790;28;20418;-42
2023/02/15 04:45:05;;;;;;;;;;;;;;;9.40;100.00;99982.56;4979463;28;19922;-42
2023/02/15 04:47:30;;;;;;;;;;;;;;;9.25;100.00;99986.13;4978764;28;20402;-41
2023/02/15 04:49:55;;;;;;;;;;;;;;;8.89;100.00;99995.06;4979526;28;19918;-42
2023/02/15 04:52:20;;;;;;;;;;;;;;;8.64;100.00;99995.25;4982176;28;20971;-41
2023/02/15 04:54:46;;;;;;;;;;;;;;;8.59;100.00;100002.16;4979293;28;20587;-42
2023/02/15 04:57:11;;;;;;;;;;;;;;;7.82;100.00;100009.44;4980174;28;19926;-42
2023/02/15 04:59:36;;;;;;;;;;;;;;;8.51;100.00;100014.22;4990311;28;19925;-42
2023/02/15 05:02:01;;;;;;;;;;;;;;;7.91;100.00;100024.78;4973335;28;19929;-41
2023/02/15 05:04:27;;;;;;;;;;;;;;;8.48;100.00;100016.78;4978774;28;19921;-41
2023/02/15 05:06:52;;;;;;;;;;;;;;;8.55;100.00;100003.03;4977676;28;20395;-42
2023/02/15 05:09:17;;;;;;;;;;;;;;;8.55;100.00;100000.47;4982043;28;19922;-41
2023/02/15 05:11:42;;;;;;;;;;;;;;;8.31;100.00;100002.31;4978580;28;19956;-42
2023/02/15 05:14:08;;;;;;;;;;;;;;;8.68;100.00;99989.25;4979354;28;20409;-41
2023/02/15 05:16:33;;;;;;;;;;;;;;;8.37;100.00;99989.47;4979599;28;20443;-42
2023/02/15 05:18:58;;;;;;;;;;;;;;;8.50;100.00;99986.81;4980924;28;19929;-42
2023/02/15 05:21:23;;;;;;;;;;;;;;;8.27;100.00;99989.53;4981163;28;19980;-41
2023/02/15 05:23:48;;;;;;;;;;;;;;;8.49;100.00;99987.72;4982706;28;19929;-42
2023/02/15 05:29:01;;;;;;;;;;;;;;;8.22;100.00;100002.38;4987267;28;19928;-41
2023/02/15 05:31:26;;;;;;;;;;;;;;;8.30;100.00;99995.50;4987633;28;19921;-42
2023/02/15 05:33:51;;;;;;;;;;;;;;;7.93;100.00;100011.09;4986746;28;19928;-42
2023/02/15 05:36:16;;;;;;;;;;;;;;;8.26;100.00;100003.25;4980420;28;20421;-41
2023/02/15 05:38:42;;;;;;;;;;;;;;;8.35;100.00;99998.03;4980859;28;19922;-41
2023/02/15 05:41:07;;;;;;;;;;;;;;;8.63;100.00;99993.56;4984034;28;20333;-41
2023/02/15 05:43:33;;;;;;;;;;;;;;;8.23;100.00;99998.94;5004448;28;20040;-41
2023/02/15 05:45:58;;;;;;;;;;;;;;;7.99;100.00;100005.09;4984155;28;19928;-41
2023/02/15 05:48:24;;;;;;;;;;;;;;;8.42;100.00;99986.91;4984431;28;20036;-41
2023/02/15 05:50:58;;;;;;;;;;;;;;;8.12;100.00;99981.06;4984057;28;19969;-41
2023/02/15 05:53:24;;;;;;;;;;;;;;;8.84;100.00;99971.13;4982945;28;19945;-41
2023/02/15 05:55:49;;;;;;;;;;;;;;;8.72;100.00;99972.94;4985937;28;20409;-42
2023/02/15 05:58:14;;;;;;;;;;;;;;;8.85;100.00;99953.16;4987395;28;19932;-41
2023/02/15 06:00:39;;;;;;;;;;;;;;;8.52;100.00;99964.56;4988090;28;20011;-41
2023/02/15 06:03:05;;;;;;;;;;;;;;;8.29;100.00;99978.38;4984464;28;19921;-41
2023/02/15 06:05:30;;;;;;;;;;;;;;;8.39;100.00;99984.31;4983093;28;19917;-41
2023/02/15 06:07:55;;;;;;;;;;;;;;;8.32;100.00;99983.50;4985664;28;19922;-41
2023/02/15 06:10:20;;;;;;;;;;;;;;;8.02;100.00;99986.25;4986313;28;20635;-41
2023/02/15 06:12:46;;;;;;;;;;;;;;;8.00;100.00;100003.38;4984090;28;20017;-42
2023/02/15 06:15:11;;;;;;;;;;;;;;;7.77;100.00;99996.66;4983509;28;19928;-42
2023/02/15 06:17:36;;;;;;;;;;;;;;;7.50;100.00;100001.03;5021661;28;20005;-42
2023/02/15 06:20:02;;;;;;;;;;;;;;;7.37;100.00;100013.88;4983919;28;19930;-42
2023/02/15 06:22:27;;;;;;;;;;;;;;;7.29;100.00;100011.34;5018888;28;19936;-41
2023/02/15 06:24:52;;;;;;;;;;;;;;;7.26;100.00;100016.47;4983842;28;19928;-41
2023/02/15 06:27:18;;;;;;;;;;;;;;;7.43;100.00;100013.88;4981338;28;19921;-42
2023/02/15 06:29:43;;;;;;;;;;;;;;;6.56;100.00;100015.66;4982221;28;19936;-42
2023/02/15 06:32:08;;;;;;;;;;;;;;;7.10;100.00;100015.66;4983497;28;19949;-42
2023/02/15 06:34:33;;;;;;;;;;;;;;;6.56;100.00;100023.34;4982681;28;19921;-41
2023/02/15 06:36:59;;;;;;;;;;;;;;;7.52;100.00;100029.22;4980715;28;19933;-41
2023/02/15 06:39:24;;;;;;;;;;;;;;;7.58;100.00;100024.06;4981525;28;19941;-42
2023/02/15 06:41:49;;;;;;;;;;;;;;;8.05;100.00;99999.06;4983102;28;19928;-42
2023/02/15 06:44:14;;;;;;;;;;;;;;;7.92;100.00;99994.00;4987168;28;19921;-42
2023/02/15 06:46:39;;;;;;;;;;;;;;;8.46;100.00;99969.75;4985148;28;19952;-42
2023/02/15 06:49:05;;;;;;;;;;;;;;;8.49;100.00;99959.47;4981512;28;19929;-43
2023/02/15 06:51:30;;;;;;;;;;;;;;;8.01;100.00;99976.88;4979084;28;20375;-42
2023/02/15 06:53:55;;;;;;;;;;;;;;;7.40;100.00;99989.09;4980593;28;20423;-42
2023/02/15 06:56:20;;;;;;;;;;;;;;;7.00;100.00;100002.03;4986689;28;20395;-42
2023/02/15 06:58:46;;;;;;;;;;;;;;;6.89;100.00;100022.50;4981717;28;19922;-42
2023/02/15 07:01:11;;;;;;;;;;;;;;;7.13;100.00;100016.50;4983262;28;19940;-42
2023/02/15 07:03:36;;;;;;;;;;;;;;;6.96;100.00;100013.13;4998296;28;19932;-42
2023/02/15 07:06:02;;;;;;;;;;;;;;;7.18;100.00;100024.16;4978048;28;19921;-41
2023/02/15 07:08:28;;;;;;;;;;;;;;;7.48;100.00;100010.44;4918731;28;1833639;-42
2023/02/15 07:10:54;;;;;;;;;;;;;;;7.22;100.00;100010.50;4983293;28;19921;-41
2023/02/15 07:13:19;;;;;;;;;;;;;;;7.41;100.00;100016.44;4989519;28;19918;-42
2023/02/15 07:15:44;;;;;;;;;;;;;;;7.95;100.00;99998.28;4988282;28;19918;-41
2023/02/15 07:18:10;;;;;;;;;;;;;;;8.85;100.00;99973.72;4982805;28;19972;-42
2023/02/15 07:20:36;;;;;;;;;;;;;;;8.59;100.00;99961.91;4980461;28;19932;-42
2023/02/15 07:23:01;;;;;;;;;;;;;;;8.53;100.00;99966.25;4985788;28;19969;-42
2023/02/15 07:25:27;;;;;;;;;;;;;;;8.66;100.00;99970.44;4979570;28;19918;-42
2023/02/15 07:28:00;;;;;;;;;;;;;;;8.10;100.00;99971.69;5013756;28;19917;-42
2023/02/15 07:30:25;;;;;;;;;;;;;;;9.05;100.00;99964.94;4987981;28;19932;-42
2023/02/15 07:35:34;;;;;;;;;;;;;;;8.69;100.00;99964.41;5013698;28;20020;-42
2023/02/15 07:38:00;;;;;;;;;;;;;;;8.70;100.00;99959.28;4990702;28;20340;-42
2023/02/15 07:40:25;;;;;;;;;;;;;;;7.86;100.00;99965.81;4979737;28;19929;-42
2023/02/15 07:42:52;;;;;;;;;;;;;;;8.03;100.00;99978.56;4982132;28;19928;-42
2023/02/15 07:45:18;;;;;;;;;;;;;;;8.11;100.00;99978.50;4981417;28;19920;-42
2023/02/15 07:47:43;;;;;;;;;;;;;;;8.38;100.00;99965.50;4982365;28;19917;-42
2023/02/15 07:50:08;;;;;;;;;;;;;;;7.87;100.00;99964.97;4980360;28;20398;-42
2023/02/15 07:52:33;;;;;;;;;;;;;;;8.29;100.00;99970.69;4979874;28;19913;-42
2023/02/15 07:54:59;;;;;;;;;;;;;;;8.44;100.00;99962.06;4979798;28;19957;-42
2023/02/15 07:57:24;;;;;;;;;;;;;;;8.77;100.00;99948.06;4982940;28;20000;-42
2023/02/15 07:59:49;;;;;;;;;;;;;;;9.26;100.00;99933.00;4978141;28;19968;-42
2023/02/15 08:02:14;;;;;;;;;;;;;;;9.85;100.00;99903.09;4979346;28;19961;-42
2023/02/15 08:04:40;;;;;;;;;;;;;;;10.05;100.00;99888.19;4981954;28;20003;-42
2023/02/15 08:07:05;;;;;;;;;;;;;;;9.65;100.00;99885.38;4976999;28;20059;-42
2023/02/15 08:09:30;;;;;;;;;;;;;;;10.09;100.00;99885.59;4979983;28;19925;-42
2023/02/15 08:11:55;;;;;;;;;;;;;;;9.64;100.00;99894.78;4984189;28;19917;-42
2023/02/15 08:14:21;;;;;;;;;;;;;;;10.04;100.00;99883.94;4980396;28;19929;-42
2023/02/15 08:16:48;;;;;;;;;;;;;;;9.64;100.00;99889.66;4978965;28;19918;-42
2023/02/15 08:19:13;;;;;;;;;;;;;;;9.72;100.00;99891.28;4980501;28;19993;-42
2023/02/15 08:21:39;;;;;;;;;;;;;;;9.93;100.00;99890.97;4999612;28;20071;-42
2023/02/15 08:24:05;;;;;;;;;;;;;;;10.04;100.00;99883.94;4980694;28;20013;-42
2023/02/15 08:26:30;;;;;;;;;;;;;;;10.21;100.00;99886.22;4979387;28;20063;-42
2023/02/15 08:28:56;;;;;;;;;;;;;;;10.35;100.00;99883.44;4979837;28;19983;-42
2023/02/15 08:31:21;;;;;;;;;;;;;;;10.15;100.00;99877.75;4980200;28;20394;-42
2023/02/15 08:33:47;;;;;;;;;;;;;;;10.35;100.00;99878.31;4980004;28;19914;-42
2023/02/15 08:36:14;;;;;;;;;;;;;;;9.89;100.00;99878.16;4978341;28;19921;-42
2023/02/15 08:38:39;;;;;;;;;;;;;;;10.15;100.00;99876.06;5014223;28;19922;-42
2023/02/15 08:41:14;;;;;;;;;;;;;;;10.32;100.00;99862.06;4979777;28;20863;-42
2023/02/15 08:43:39;;;;;;;;;;;;;;;10.73;100.00;99858.75;4980067;28;20419;-42
2023/02/15 08:46:05;;;;;;;;;;;;;;;10.75;100.00;99846.69;4978755;28;19988;-42
2023/02/15 08:48:30;;;;;;;;;;;;;;;10.57;100.00;99849.63;4979180;28;19928;-42
2023/02/15 08:50:56;;;;;;;;;;;;;;;10.51;100.00;99853.13;4979106;28;19918;-42
2023/02/15 08:53:21;;;;;;;;;;;;;;;10.92;100.00;99854.09;4979089;28;19926;-41
2023/02/15 08:55:47;;;;;;;;;;;;;;;11.18;100.00;99832.94;4978130;28;19961;-42
2023/02/15 08:58:12;;;;;;;;;;;;;;;10.75;100.00;99838.97;4977446;28;20982;-42
2023/02/15 09:00:37;;;;;;;;;;;;;;;11.04;100.00;99848.69;4980396;28;19922;-42
2023/02/15 09:03:03;;;;;;;;;;;;;;;11.39;100.00;99817.91;4979549;28;20028;-42
2023/02/15 09:05:28;;;;;;;;;;;;;;;11.64;100.00;99813.88;4978568;28;19921;-42
2023/02/15 09:07:53;;;;;;;;;;;;;;;11.70;100.00;99811.16;4977450;28;19949;-42
2023/02/15 09:10:18;;;;;;;;;;;;;;;12.09;100.00;99800.75;4979176;28;19925;-42
2023/02/15 09:12:44;;;;;;;;;;;;;;;12.20;100.00;99786.72;4979763;28;19925;-42
2023/02/15 09:15:09;;;;;;;;;;;;;;;12.35;100.00;99812.16;4978631;28;19925;-42
2023/02/15 09:17:34;;;;;;;;;;;;;;;11.60;100.00;99817.41;4979392;28;21198;-42
2023/02/15 09:19:59;;;;;;;;;;;;;;;12.04;100.00;99810.38;4978832;28;21234;-42
2023/02/15 09:22:24;;;;;;;;;;;;;;;12.17;100.00;99802.31;4979645;28;20473;-42
2023/02/15 09:24:50;;;;;;;;;;;;;;;11.86;100.00;99798.72;4979810;28;20446;-42
2023/02/15 09:27:15;;;;;;;;;;;;;;;12.39;100.00;99798.28;4978398;28;20720;-42
2023/02/15 09:29:40;;;;;;;;;;;;;;;12.67;100.00;99782.00;4979302;28;20980;-42
2023/02/15 09:32:05;;;;;;;;;;;;;;;12.19;100.00;99801.38;4979432;28;20573;-42
2023/02/15 09:34:30;;;;;;;;;;;;;;;13.34;100.00;99780.06;4979212;28;20549;-42
2023/02/15 09:36:56;;;;;;;;;;;;;;;12.61;100.00;99782.19;4977906;28;20506;-42
2023/02/15 09:39:24;;;;;;;;;;;;;;;12.53;100.00;99775.47;4978422;28;20612;-42
2023/02/15 09:41:55;;;;;;;;;;;;;;;12.78;100.00;99774.81;4978783;28;19933;-42
2023/02/15 09:44:39;;;;;;;;;;;;;;;12.70;100.00;99781.91;4978713;28;19922;-49
2023/02/15 09:47:23;;;;;;;;;;;;;;;13.72;100.00;99765.06;4978558;28;19918;-42
2023/02/15 09:49:57;;;;;;;;;;;;;;;14.25;100.00;99752.94;4978303;28;19932;-42
2023/02/15 09:52:22;;;;;;;;;;;;;;;14.31;99.81;99752.72;4979700;28;20338;-42
2023/02/15 09:54:58;;;;;;;;;;;;;;;14.05;98.28;99751.91;4978746;28;19929;-42
2023/02/15 09:57:32;;;;;;;;;;;;;;;14.30;100.00;99771.75;4979603;28;19914;-42
2023/02/15 09:59:58;;;;;;;;;;;;;;;14.60;98.58;99760.34;4975895;28;19922;-42
2023/02/15 10:02:45;;;;;;;;;;;;;;;14.34;100.00;99769.00;4978694;28;19921;-42
2023/02/15 10:05:16;;;;;;;;;;;;;;;14.54;99.76;99763.13;4981990;28;19917;-42
2023/02/15 10:08:00;;;;;;;;;;;;;;;15.65;99.26;99758.91;4980328;28;19925;-42
2023/02/15 10:10:32;;;;;;;;;;;;;;;14.75;95.90;99742.53;4982227;28;19965;-42
2023/02/15 10:13:21;;;;;;;;;;;;;;;15.47;95.73;99748.38;5014844;28;19922;-42
2023/02/15 10:15:51;;;;;;;;;;;;;;;15.06;92.62;99737.84;4983780;28;19921;-42
2023/02/15 10:18:16;;;;;;;;;;;;;;;15.58;93.65;99734.13;4982422;28;19918;-42
2023/02/15 10:21:02;;;;;;;;;;;;;;;15.47;94.25;99740.56;4982014;28;20413;-42
2023/02/15 10:23:45;;;;;;;;;;;;;;;14.94;99.14;99772.06;4982173;28;19918;-42
2023/02/15 10:26:19;;;;;;;;;;;;;;;15.53;95.67;99741.22;4981497;28;19926;-42
2023/02/15 10:28:57;;;;;;;;;;;;;;;15.34;97.41;99751.50;4981705;28;20450;-42
2023/02/15 10:31:24;;;;;;;;;;;;;;;15.51;98.15;99758.59;5022981;28;19921;-42
2023/02/15 10:34:09;;;;;;;;;;;;;;;16.50;93.38;99725.00;4985105;28;19924;-42
2023/02/15 10:36:39;;;;;;;;;;;;;;;16.72;91.48;99719.69;4980388;28;20616;-42
2023/02/15 10:39:20;;;;;;;;;;;;;;;16.48;89.38;99711.22;5008552;28;19921;-42
2023/02/15 10:42:05;;;;;;;;;;;;;;;17.06;86.67;99699.91;4982453;28;19918;-42
2023/02/15 10:44:44;;;;;;;;;;;;;;;17.53;84.61;99697.59;4988165;28;19926;-42
2023/02/15 10:47:09;;;;;;;;;;;;;;;18.21;83.55;99682.94;5013065;28;19953;-42
2023/02/15 10:49:37;;;;;;;;;;;;;;;17.98;83.32;99678.00;4981531;28;19956;-42
2023/02/15 10:52:11;;;;;;;;;;;;;;;17.42;84.81;99699.91;4981809;28;19944;-42
2023/02/15 10:54:50;;;;;;;;;;;;;;;17.79;86.03;99703.31;4981811;28;19925;-42
2023/02/15 10:57:45;;;;;;;;;;;;;;;17.85;85.40;99700.41;5011709;28;19957;-42
2023/02/15 11:00:13;;;;;;;;;;;;;;;18.47;83.62;99685.00;4986164;28;20442;-42
2023/02/15 11:02:42;;;;;;;;;;;;;;;17.83;82.41;99689.22;4982849;28;20449;-42
2023/02/15 11:05:16;;;;;;;;;;;;;;;17.86;82.31;99693.41;4983084;28;19922;-42
2023/02/15 11:07:41;;;;;;;;;;;;;;;18.10;82.85;99691.31;4979844;28;19960;-42
2023/02/15 11:10:07;;;;;;;;;;;;;;;18.58;80.88;99682.66;5015560;28;19988;-42
2023/02/15 11:12:32;;;;;;;;;;;;;;;18.53;79.94;99683.84;4979112;28;19928;-42
2023/02/15 11:14:58;;;;;;;;;;;;;;;18.91;79.16;99686.16;4978127;28;19973;-42
2023/02/15 11:17:44;;;;;;;;;;;;;;;18.60;76.38;99677.38;5010481;28;19921;-42
2023/02/15 11:20:09;;;;;;;;;;;;;;;18.77;77.31;99682.53;4980838;28;19933;-42
2023/02/15 11:22:34;;;;;;;;;;;;;;;19.25;76.41;99681.63;4982545;28;20323;-42
2023/02/15 11:25:00;;;;;;;;;;;;;;;18.69;79.05;99694.28;5019058;28;19925;-42
2023/02/15 11:27:26;;;;;;;;;;;;;;;18.48;78.05;99685.88;4979115;28;19976;-42
2023/02/15 11:29:58;;;;;;;;;;;;;;;18.85;77.03;99676.06;5016608;28;19932;-42
2023/02/15 11:32:37;;;;;;;;;;;;;;;19.01;77.96;99676.88;5003843;28;19922;-42
2023/02/15 11:35:12;;;;;;;;;;;;;;;19.64;75.88;99665.44;5015532;28;19976;-42
2023/02/15 11:37:37;;;;;;;;;;;;;;;19.89;75.32;99659.63;4982498;28;19922;-42
2023/02/15 11:40:03;;;;;;;;;;;;;;;19.72;73.14;99655.41;4981524;28;19940;-43
2023/02/15 11:42:29;;;;;;;;;;;;;;;20.06;74.01;99659.44;4982443;28;20409;-43
2023/02/15 11:45:02;;;;;;;;;;;;;;;18.89;73.68;99665.34;4976479;28;19926;-42
2023/02/15 11:47:27;;;;;;;;;;;;;;;18.76;73.96;99661.72;5014089;28;19926;-43
2023/02/15 11:49:53;;;;;;;;;;;;;;;17.85;74.15;99668.28;4981123;28;19921;-42
2023/02/15 11:52:18;;;;;;;;;;;;;;;18.81;77.85;99684.03;5014277;28;19921;-42
2023/02/15 11:54:45;;;;;;;;;;;;;;;18.71;76.08;99675.00;5019906;28;19924;-42
2023/02/15 11:57:22;;;;;;;;;;;;;;;18.31;74.75;99661.50;5015889;28;19917;-42
2023/02/15 11:59:49;;;;;;;;;;;;;;;17.84;74.69;99672.66;4981200;28;19922;-42
2023/02/15 12:02:16;;;;;;;;;;;;;;;17.51;73.32;99660.38;4979313;28;20294;-43
2023/02/15 12:04:43;;;;;;;;;;;;;;;18.29;73.30;99652.94;4982056;28;19928;-42
2023/02/15 12:07:11;;;;;;;;;;;;;;;19.59;71.09;99638.72;5016046;28;19925;-42
2023/02/15 12:09:38;;;;;;;;;;;;;;;19.22;70.46;99641.72;4980110;28;19972;-42
2023/02/15 12:12:30;;;;;;;;;;;;;;;20.09;73.10;99645.34;5027157;28;20032;-42
2023/02/15 12:14:56;;;;;;;;;;;;;;;20.34;70.78;99631.59;4980780;28;20643;-42
2023/02/15 12:17:22;;;;;;;;;;;;;;;21.39;73.48;99651.09;4980007;28;20134;-42
2023/02/15 12:19:50;;;;;;;;;;;;;;;19.99;68.13;99621.53;4980057;28;20291;-42
2023/02/15 12:22:20;;;;;;;;;;;;;;;20.86;67.69;99617.84;4979644;28;20450;-42
2023/02/15 12:24:45;;;;;;;;;;;;;;;21.81;69.36;99625.59;5016309;28;19949;-42
2023/02/15 12:27:18;;;;;;;;;;;;;;;21.62;66.93;99613.75;5009308;28;20374;-42
2023/02/15 12:30:00;;;;;;;;;;;;;;;21.49;67.10;99607.66;5010292;28;20589;-42
2023/02/15 12:32:27;;;;;;;;;;;;;;;21.24;64.24;99601.41;5012421;28;20790;-42
2023/02/15 12:34:53;;;;;;;;;;;;;;;21.79;69.49;99627.47;5010218;28;19933;-42
2023/02/15 12:37:20;;;;;;;;;;;;;;;21.13;63.51;99596.03;5021402;28;19963;-42
2023/02/15 12:39:52;;;;;;;;;;;;;;;21.77;67.80;99618.88;4997888;28;19964;-42
2023/02/15 12:42:19;;;;;;;;;;;;;;;22.04;70.28;99622.22;4977536;28;19925;-42
2023/02/15 12:44:57;;;;;;;;;;;;;;;21.54;64.49;99597.69;4981068;28;19953;-42
2023/02/15 12:47:23;;;;;;;;;;;;;;;21.63;64.90;99601.47;4979444;28;19922;-42
2023/02/15 12:50:16;;;;;;;;;;;;;;;20.76;69.96;99619.38;4979066;28;19922;-42
2023/02/15 12:52:42;;;;;;;;;;;;;;;21.77;67.69;99603.16;4978747;28;19918;-42
2023/02/15 12:55:21;;;;;;;;;;;;;;;21.94;69.15;99605.44;4978776;28;19969;-42
2023/02/15 12:57:47;;;;;;;;;;;;;;;21.64;63.41;99593.47;4978252;28;19921;-42
2023/02/15 13:00:12;;;;;;;;;;;;;;;21.39;62.96;99582.97;4979218;28;20382;-42
2023/02/15 13:02:40;;;;;;;;;;;;;;;22.04;66.28;99609.09;4979427;28;20323;-41
2023/02/15 13:05:23;;;;;;;;;;;;;;;21.98;64.45;99599.03;4978390;28;19922;-42
2023/02/15 13:07:49;;;;;;;;;;;;;;;21.98;67.04;99606.91;4976902;28;20032;-42